Strona główna
METAR-TAF:

METAR-TAF

Lotnisko :

Port lotniczy Paderborn/Lippstadt

Paderborn-Lippstadt, Niemcy

Szerokość geograficzna: 51-37N, Długość geograficzna: 008-37E, wysokość: 213 m

Aktualna obserwacja pogody

Raport powstał 27 minut temu, godzina 12:20 UTC
Wiatr 3 kt z kierunków zmiennych
Temperatura 16°C
Wilgotność 77%
Ciśnienie 1016 hPa
Widzialność 10 km lub więcej
Przerywane chmury na wysokości 1600 ft
Zachmurzenie całkowite na wysokości 1900 ft

METAR: EDLP 171220Z VRB03KT 9999 BKN016 OVC019 16/12 Q1016

czas: 14:47 (12:47 UTC)

Prognoza

Raport powstał 1 godzina i 47 minut temu, godzina 11:00 UTC
Prognoza ważna od 17 godzina 12 UTC do 18 godzina 12 UTC
Wiatr 3 kt z kierunków zmiennych
Widzialność 10 km lub więcej
Przerywane chmury na wysokości 2000 ft
Stopniowe zmiany
od 18 godzina 07 UTC do 18 godzina 10 UTC
Wiatr 5 kt od zachodnio-południowy zachód

TAF: EDLP 171100Z 1712/1812 VRB03KT 9999 BKN020 BECMG 1807/1810 24005KT

Obserwacja i prognoza pogody dla ponad 4000 lotnisk (raport METAR i TAF).

Dostępne stacje oznaczono żółtymi i czerwonymi punktami na mapie.

Najedź kursorem aby zobaczyć nazwę stacji.

Kliknij aby zobaczyć obserwacje i prognozy pogody.

Aby zmienić mapę: kliknij na zielony przycisk z czarnym krzyżykiem, aby powiększyć; na zielony przycisk z myślnikiem, aby pomniejszyć; na zielone strzałki, aby przejść do map sąsiednich.


METAR-TAF: